Terminal Aerodrome Forecast
Issued by NWS

Home | Current Version | Previous Version | Text Only | Print | Product List | Glossary On
Versions: 1 2 3 4 5 6 7 8 9 10 11 12 13 14
000
FTUS46 KPDT 230500
TAFRDM
TAF
KRDM 230520Z 2306/2406 19011G22KT P6SM VCSH SCT040 BKN060 OVC100
     FM231000 18008KT P6SM FEW040 BKN060
     FM232000 24015G25KT P6SM SCT050 BKN070
     FM240300 18005KT P6SM BKN070=

USA.gov is the U.S. government's official web portal to all federal, state and local government web resources and services.